Time;durP1;ratioP1;P1;durP2;ratioP2;P2;SDS_P1;SDS_P2;PMS_P1;PMS_P2;Temp;Humidity;BMP_temperature;BMP_pressure;BME280_temperature;BME280_humidity;BME280_pressure;Samples;Min_cycle;Max_cycle;Signal;HPM_P1;HPM_P2
2022/12/07 00:03:01;;;;;;;14.05;10.53;;;;;;;3.34;81.44;99846.72;2003918;88;27658;-66
2022/12/07 00:06:05;;;;;;;15.40;11.22;;;;;;;3.34;81.61;99848.05;2003967;88;34261;-66
2022/12/07 00:09:11;;;;;;;14.43;10.25;;;;;;;3.33;81.51;99844.54;2004052;88;30451;-65
2022/12/07 00:12:13;;;;;;;14.45;10.28;;;;;;;3.32;81.45;99848.09;2004249;88;27646;-66
2022/12/07 00:15:14;;;;;;;14.75;10.30;;;;;;;3.29;81.41;99844.67;2004277;88;29453;-66
2022/12/07 00:18:16;;;;;;;15.83;10.18;;;;;;;3.27;81.43;99846.48;2003904;88;31312;-66
2022/12/07 00:21:21;;;;;;;13.30;9.35;;;;;;;3.26;81.53;99844.28;2020289;86;33872;-66
2022/12/07 00:24:23;;;;;;;12.00;8.78;;;;;;;3.27;81.54;99844.69;2036889;87;29572;-66
2022/12/07 00:27:25;;;;;;;11.05;9.15;;;;;;;3.28;81.74;99834.52;1983354;89;27712;-67
2022/12/07 00:30:26;;;;;;;12.88;8.68;;;;;;;3.32;81.73;99833.97;2000543;89;28651;-67
2022/12/07 00:33:28;;;;;;;11.38;8.18;;;;;;;3.29;81.56;99834.94;2000502;89;31036;-64
2022/12/07 00:36:30;;;;;;;11.15;8.13;;;;;;;3.28;81.58;99833.20;2000926;89;33714;-65
2022/12/07 00:39:31;;;;;;;14.25;7.97;;;;;;;3.27;81.55;99827.48;1980707;89;30341;-66
2022/12/07 00:42:33;;;;;;;12.25;7.72;;;;;;;3.26;81.53;99823.09;2000436;89;27687;-65
2022/12/07 00:45:35;;;;;;;9.78;7.33;;;;;;;3.28;81.68;99829.70;2000434;89;29462;-65
2022/12/07 00:48:36;;;;;;;13.70;7.00;;;;;;;3.28;81.65;99818.64;1980543;89;31035;-65
2022/12/07 00:51:38;;;;;;;10.20;6.97;;;;;;;3.28;81.68;99823.93;2018892;87;32968;-66
2022/12/07 00:54:40;;;;;;;10.75;7.58;;;;;;;3.31;81.69;99824.33;2033068;87;29394;-66
2022/12/07 00:57:42;;;;;;;12.50;9.78;;;;;;;3.30;81.61;99821.27;2032961;87;27729;-67
2022/12/07 01:00:43;;;;;;;13.88;10.23;;;;;;;3.29;81.64;99824.34;2032854;87;28641;-65
2022/12/07 01:03:45;;;;;;;12.55;9.03;;;;;;;3.31;81.79;99825.17;2032951;87;31187;-65
2022/12/07 01:06:47;;;;;;;12.40;9.60;;;;;;;3.33;81.77;99827.77;2032889;87;32947;-64
2022/12/07 01:09:50;;;;;;;10.78;8.65;;;;;;;3.34;81.73;99832.16;2012461;88;29540;-67
2022/12/07 01:12:52;;;;;;;12.98;8.65;;;;;;;3.36;81.81;99826.37;2012604;88;27731;-65
2022/12/07 01:16:04;;;;;;;10.18;7.05;;;;;;;3.36;81.70;99829.02;2012257;88;28320;-66
2022/12/07 01:19:04;;;;;;;8.23;5.67;;;;;;;3.37;81.66;99829.90;2011597;88;31096;-65
2022/12/07 01:22:06;;;;;;;6.58;5.60;;;;;;;3.34;81.48;99825.09;2012271;88;33785;-67
2022/12/07 01:25:10;;;;;;;9.33;5.45;;;;;;;3.34;81.67;99820.23;2012302;87;29202;-66
2022/12/07 01:28:11;;;;;;;7.37;5.22;;;;;;;3.35;81.66;99819.33;2012788;88;27776;-65
2022/12/07 01:31:17;;;;;;;8.03;5.45;;;;;;;3.34;81.60;99812.30;2012222;87;28705;-66
2022/12/07 01:34:22;;;;;;;8.28;5.25;;;;;;;3.32;81.56;99821.62;2069439;85;31012;-65
2022/12/07 01:37:23;;;;;;;8.53;5.42;;;;;;;3.32;81.69;99819.41;2070670;85;33149;-66
2022/12/07 01:40:25;;;;;;;6.33;4.90;;;;;;;3.31;81.63;99815.06;2070316;86;29307;-65
2022/12/07 01:43:29;;;;;;;11.97;8.23;;;;;;;3.28;81.58;99815.98;2032878;87;27650;-66
2022/12/07 01:46:31;;;;;;;5.90;4.28;;;;;;;3.29;81.74;99814.23;2032917;87;32815;-65
2022/12/07 01:49:48;;;;;;;6.72;4.50;;;;;;;3.30;81.76;99813.31;2032668;87;31020;-65
2022/12/07 01:52:51;;;;;;;8.15;4.92;;;;;;;3.28;81.73;99818.64;1983956;88;33752;-65
2022/12/07 01:55:53;;;;;;;5.40;4.65;;;;;;;3.30;81.83;99819.94;2000421;89;30298;-65
2022/12/07 01:58:56;;;;;;;6.97;4.92;;;;;;;3.29;81.60;99821.70;2000489;89;27822;-66
2022/12/07 02:01:58;;;;;;;5.72;4.78;;;;;;;3.27;81.73;99816.90;2000498;89;28678;-66
2022/12/07 02:05:05;;;;;;;8.73;4.22;;;;;;;3.27;81.81;99822.19;2000300;89;31046;-65
2022/12/07 02:08:08;;;;;;;7.92;4.28;;;;;;;3.29;81.88;99823.02;2000316;89;33815;-67
2022/12/07 02:11:10;;;;;;;6.95;4.55;;;;;;;3.30;81.85;99821.27;1980660;89;30310;-65
2022/12/07 02:14:11;;;;;;;4.85;4.08;;;;;;;3.31;81.82;99824.33;2000659;89;27712;-66
2022/12/07 02:17:31;;;;;;;5.10;4.25;;;;;;;3.30;81.77;99824.77;2000257;89;29251;-66
2022/12/07 02:20:49;;;;;;;4.05;3.22;;;;;;;3.31;81.82;99821.67;2000521;89;31060;-65
2022/12/07 02:24:24;;;;;;;6.35;3.12;;;;;;;3.31;81.79;99819.88;2000596;87;33780;-66
2022/12/07 02:27:34;;;;;;;4.72;3.27;;;;;;;3.28;81.66;99816.45;1981051;89;31454;-66
2022/12/07 02:30:42;;;;;;;4.08;3.10;;;;;;;3.24;81.71;99814.33;2002087;87;27628;-65
2022/12/07 02:33:52;;;;;;;4.00;2.85;;;;;;;3.24;81.82;99815.66;2000611;89;29400;-66
2022/12/07 02:36:57;;;;;;;4.92;2.80;;;;;;;3.23;81.71;99813.91;2000208;89;31050;-66
2022/12/07 02:40:19;;;;;;;4.65;2.72;;;;;;;3.22;81.69;99815.30;2000616;88;32961;-66
2022/12/07 02:43:25;;;;;;;4.15;2.90;;;;;;;3.19;81.70;99821.08;2000780;89;29333;-67
2022/12/07 02:46:37;;;;;;;3.42;2.60;;;;;;;3.17;81.68;99820.25;2000674;89;27751;-66
2022/12/07 02:49:40;;;;;;;4.37;2.67;;;;;;;3.17;81.72;99811.45;1983589;87;28729;-66
2022/12/07 02:52:41;;;;;;;3.92;3.02;;;;;;;3.14;81.65;99814.17;1997711;87;31710;-66
2022/12/07 02:55:43;;;;;;;4.30;2.27;;;;;;;3.13;81.77;99812.00;1995797;89;34097;-66
2022/12/07 02:59:25;;;;;;;3.75;2.65;;;;;;;3.12;81.72;99807.61;1995773;89;30150;-67
2022/12/07 03:03:00;;;;;;;4.37;2.40;;;;;;;3.10;81.66;99807.22;1995981;88;27643;-65
2022/12/07 03:06:10;;;;;;;4.72;2.80;;;;;;;3.08;81.78;99804.63;1995894;89;29488;-66
2022/12/07 03:09:16;;;;;;;2.95;2.25;;;;;;;3.09;81.84;99807.69;1995864;89;30672;-66
2022/12/07 03:12:26;;;;;;;4.50;2.47;;;;;;;3.06;81.74;99809.09;2001579;87;33024;-67
2022/12/07 03:15:39;;;;;;;2.12;1.92;;;;;;;3.07;81.77;99811.27;1995767;89;30204;-66
2022/12/07 03:18:49;;;;;;;2.20;1.85;;;;;;;3.07;81.88;99816.13;1995693;88;28188;-66
2022/12/07 03:22:07;;;;;;;3.40;2.52;;;;;;;3.04;81.80;99813.11;1910574;92;28682;-65
2022/12/07 03:25:12;;;;;;;1.85;1.75;;;;;;;3.04;81.74;99815.77;1930099;92;31065;-67
2022/12/07 03:28:17;;;;;;;2.87;2.45;;;;;;;3.02;81.77;99811.39;1930165;92;33767;-67
2022/12/07 03:31:29;;;;;;;4.08;2.00;;;;;;;3.02;81.83;99808.31;1930170;92;29322;-66
2022/12/07 03:34:36;;;;;;;2.90;2.15;;;;;;;3.01;81.82;99801.28;1930178;92;28136;-67
2022/12/07 03:37:45;;;;;;;2.50;1.80;;;;;;;3.01;81.87;99801.28;1930289;92;28523;-67
2022/12/07 03:41:07;;;;;;;2.10;1.90;;;;;;;3.00;81.75;99807.92;1930049;92;31099;-66
2022/12/07 03:44:09;;;;;;;2.50;2.20;;;;;;;3.00;81.86;99790.72;1955219;90;33038;-66
2022/12/07 03:47:36;;;;;;;3.00;2.15;;;;;;;3.00;81.83;99790.28;1960374;90;29337;-65
2022/12/07 03:50:51;;;;;;;1.87;1.75;;;;;;;3.00;81.87;99785.42;1960512;90;27550;-67
2022/12/07 03:54:15;;;;;;;2.47;1.65;;;;;;;3.01;81.89;99787.16;1960446;90;28701;-66
2022/12/07 03:57:17;;;;;;;2.33;1.80;;;;;;;3.01;81.98;99784.52;1960573;90;31078;-65
2022/12/07 04:00:19;;;;;;;2.90;2.00;;;;;;;2.99;81.93;99780.61;2023232;87;33151;-65
2022/12/07 04:03:21;;;;;;;3.58;2.05;;;;;;;2.99;81.91;99777.08;2009304;87;29342;-66
2022/12/07 04:06:22;;;;;;;3.80;2.42;;;;;;;2.98;81.90;99781.98;2009541;87;27879;-66
2022/12/07 04:09:24;;;;;;;2.95;2.30;;;;;;;2.98;82.05;99784.16;2028149;87;28621;-67
2022/12/07 04:12:26;;;;;;;2.42;2.20;;;;;;;3.01;81.97;99788.05;2017114;87;32052;-66
2022/12/07 04:15:28;;;;;;;3.15;2.37;;;;;;;3.00;81.94;99784.11;1995648;89;32978;-66
2022/12/07 04:18:30;;;;;;;4.90;2.92;;;;;;;3.02;82.00;99782.28;1995451;88;29405;-66
2022/12/07 04:21:31;;;;;;;4.30;2.87;;;;;;;3.00;81.90;99786.31;1995923;89;27754;-66
2022/12/07 04:24:34;;;;;;;3.30;2.55;;;;;;;2.99;81.92;99786.34;1995427;89;28728;-67
2022/12/07 04:27:36;;;;;;;3.42;3.12;;;;;;;3.00;82.02;99790.28;1995666;88;31027;-67
2022/12/07 04:30:38;;;;;;;4.00;3.30;;;;;;;2.98;81.89;99792.09;1995743;89;32930;-67
2022/12/07 04:33:39;;;;;;;6.15;3.87;;;;;;;2.98;81.86;99787.27;1995741;89;29337;-67
2022/12/07 04:36:42;;;;;;;3.55;3.25;;;;;;;2.96;81.86;99786.45;1995829;89;27756;-67
2022/12/07 04:39:44;;;;;;;4.05;3.15;;;;;;;2.95;81.88;99791.31;1995740;89;28671;-66
2022/12/07 04:42:46;;;;;;;4.30;3.17;;;;;;;2.94;81.96;99782.50;2000908;87;31845;-67
2022/12/07 04:45:51;;;;;;;3.45;3.15;;;;;;;2.97;82.11;99785.53;1995586;89;33339;-66
2022/12/07 04:48:53;;;;;;;3.17;2.92;;;;;;;2.98;82.12;99785.48;1996103;89;30186;-66
2022/12/07 04:51:55;;;;;;;3.45;2.52;;;;;;;2.98;82.09;99779.34;1987035;89;27844;-67
2022/12/07 04:54:56;;;;;;;2.72;2.25;;;;;;;2.98;82.02;99786.80;2000537;89;28688;-67
2022/12/07 04:57:58;;;;;;;3.05;2.30;;;;;;;2.97;82.10;99776.28;2000392;89;31835;-67
2022/12/07 05:00:59;;;;;;;3.05;2.52;;;;;;;2.98;82.11;99778.02;1960383;90;32872;-67
2022/12/07 05:04:01;;;;;;;2.83;2.60;;;;;;;2.95;81.99;99778.94;1995502;89;29300;-67
2022/12/07 05:07:02;;;;;;;2.92;2.62;;;;;;;2.96;82.12;99779.83;1995527;89;27712;-67
2022/12/07 05:10:08;;;;;;;3.60;2.40;;;;;;;2.96;82.08;99777.19;1995506;89;28705;-66
2022/12/07 05:13:09;;;;;;;4.22;2.87;;;;;;;2.95;82.06;99776.77;2012979;87;30322;-66
2022/12/07 05:16:11;;;;;;;4.95;3.58;;;;;;;2.93;82.09;99770.17;1991995;89;33998;-66
2022/12/07 05:19:13;;;;;;;6.03;4.08;;;;;;;2.94;82.13;99775.03;1991803;89;30113;-67
2022/12/07 05:22:15;;;;;;;5.58;4.60;;;;;;;2.89;82.05;99776.02;1991873;89;27658;-67
2022/12/07 05:25:17;;;;;;;6.72;4.45;;;;;;;2.89;82.22;99782.63;2011466;87;28677;-67
2022/12/07 05:28:18;;;;;;;6.62;5.03;;;;;;;2.92;82.32;99776.84;2012528;88;30994;-67
2022/12/07 05:31:20;;;;;;;6.78;4.75;;;;;;;2.92;82.23;99771.55;2012488;87;33708;-67
2022/12/07 05:34:22;;;;;;;7.58;5.15;;;;;;;2.93;82.35;99770.64;2012570;87;29338;-68
2022/12/07 05:37:23;;;;;;;6.30;4.75;;;;;;;2.95;82.42;99774.12;2012752;87;27783;-67
2022/12/07 05:40:25;;;;;;;6.80;5.08;;;;;;;2.94;82.30;99767.09;2012645;88;28662;-67
2022/12/07 05:43:26;;;;;;;8.15;6.22;;;;;;;2.96;82.42;99771.42;2012251;88;31848;-67
2022/12/07 05:46:28;;;;;;;9.30;5.95;;;;;;;2.98;82.42;99781.52;2012494;88;32947;-67
2022/12/07 05:49:30;;;;;;;9.30;6.42;;;;;;;2.98;82.41;99774.90;2012652;87;29310;-67
2022/12/07 05:52:31;;;;;;;10.88;6.08;;;;;;;2.99;82.47;99773.98;2012495;87;28247;-67
2022/12/07 05:55:33;;;;;;;10.75;7.60;;;;;;;3.00;82.43;99774.41;2012666;87;28697;-67
2022/12/07 06:02:04;;;;;;;12.53;8.93;;;;;;;3.01;82.41;99779.23;2012344;88;32218;-66
2022/12/07 06:05:07;;;;;;;13.45;9.35;;;;;;;3.00;82.34;99776.17;2012571;88;30281;-66
2022/12/07 06:08:08;;;;;;;17.45;10.35;;;;;;;2.98;82.36;99774.90;2012695;88;27637;-66
2022/12/07 06:14:30;;;;;;;17.37;11.88;;;;;;;2.96;82.22;99767.45;1949428;90;31188;-65
2022/12/07 06:17:32;;;;;;;18.23;12.55;;;;;;;2.95;82.17;99775.45;1949285;91;33064;-65
2022/12/07 06:20:34;;;;;;;17.87;12.30;;;;;;;2.95;82.29;99766.19;1949665;90;29338;-66
2022/12/07 06:23:35;;;;;;;20.12;13.93;;;;;;;2.94;82.11;99770.59;1949750;90;27646;-66
2022/12/07 06:26:37;;;;;;;24.25;15.93;;;;;;;2.93;82.19;99765.35;1949787;90;29455;-65
2022/12/07 06:29:39;;;;;;;23.18;15.40;;;;;;;2.93;82.12;99762.70;1949658;91;31014;-65
2022/12/07 06:32:40;;;;;;;24.37;15.28;;;;;;;2.92;82.10;99768.91;1949823;90;33008;-66
2022/12/07 06:35:42;;;;;;;23.57;15.90;;;;;;;2.90;82.03;99771.57;1949817;90;29418;-66
2022/12/07 06:38:43;;;;;;;25.43;15.68;;;;;;;2.88;82.13;99766.34;1949964;90;27768;-66
2022/12/07 06:41:45;;;;;;;24.30;16.57;;;;;;;2.86;82.03;99776.09;1958817;88;29460;-66
2022/12/07 06:44:46;;;;;;;21.82;15.25;;;;;;;2.85;81.97;99780.96;2012649;88;30461;-66
2022/12/07 06:47:48;;;;;;;23.30;15.45;;;;;;;2.85;82.06;99780.11;2012620;88;32395;-66
2022/12/07 06:50:50;;;;;;;20.30;14.13;;;;;;;2.86;81.89;99779.20;2012532;88;29333;-66
2022/12/07 06:53:51;;;;;;;22.35;15.48;;;;;;;2.84;81.92;99783.19;2012525;87;27670;-65
2022/12/07 06:56:53;;;;;;;24.95;16.00;;;;;;;2.84;81.85;99781.02;2012608;88;29956;-66
2022/12/07 06:59:55;;;;;;;24.10;15.48;;;;;;;2.83;81.85;99781.45;2012918;88;31368;-66
2022/12/07 07:02:56;;;;;;;23.67;16.02;;;;;;;2.84;81.76;99781.87;2013035;88;33376;-66
2022/12/07 07:05:58;;;;;;;24.43;15.85;;;;;;;2.82;81.79;99785.00;2012605;88;30143;-66
2022/12/07 07:09:00;;;;;;;22.65;14.63;;;;;;;2.82;81.73;99781.50;2013231;88;27651;-66
2022/12/07 07:12:02;;;;;;;27.60;16.20;;;;;;;2.84;81.77;99782.34;2004802;88;29928;-65
2022/12/07 07:15:05;;;;;;;22.60;15.58;;;;;;;2.81;81.63;99780.65;1980957;89;31449;-66
2022/12/07 07:18:06;;;;;;;24.07;15.85;;;;;;;2.81;81.63;99775.80;1980594;89;33520;-67
2022/12/07 07:21:08;;;;;;;23.60;16.05;;;;;;;2.82;81.71;99774.89;1980977;89;29305;-66
2022/12/07 07:24:10;;;;;;;25.00;15.18;;;;;;;2.82;81.68;99774.89;1981080;89;27788;-66
2022/12/07 07:27:11;;;;;;;25.10;15.28;;;;;;;2.84;81.67;99778.37;1980873;89;29627;-66
2022/12/07 07:30:14;;;;;;;27.37;16.50;;;;;;;2.85;81.64;99782.75;1981029;89;31037;-67
2022/12/07 07:33:16;;;;;;;23.77;15.18;;;;;;;2.87;81.78;99772.53;1980858;89;33051;-67
2022/12/07 07:36:17;;;;;;;27.00;16.62;;;;;;;2.88;81.56;99774.27;2036798;87;30154;-67
2022/12/07 07:39:19;;;;;;;34.43;22.85;;;;;;;2.92;81.53;99770.23;2036816;87;27685;-67
2022/12/07 07:42:21;;;;;;;30.23;16.80;;;;;;;2.94;81.51;99769.27;2036895;86;29452;-67
2022/12/07 07:45:24;;;;;;;28.73;16.77;;;;;;;2.98;81.42;99771.40;2036844;87;31016;-67
2022/12/07 07:48:26;;;;;;;24.35;16.05;;;;;;;3.05;81.56;99768.98;2036812;87;32970;-67
2022/12/07 07:51:27;;;;;;;29.02;16.02;;;;;;;3.13;81.64;99774.06;2036552;87;29912;-67
2022/12/07 07:54:29;;;;;;;24.18;15.25;;;;;;;3.24;81.71;99773.30;2034710;87;27681;-66
2022/12/07 07:57:30;;;;;;;24.10;14.68;;;;;;;3.31;81.54;99765.61;2034618;87;29495;-66
2022/12/07 08:00:32;;;;;;;22.67;14.43;;;;;;;3.38;81.52;99759.69;2034729;87;31669;-67
2022/12/07 08:03:34;;;;;;;24.18;14.68;;;;;;;3.44;81.11;99764.81;2034401;87;32956;-67
2022/12/07 08:06:35;;;;;;;19.67;14.07;;;;;;;3.48;81.19;99770.41;2034591;87;29322;-67
2022/12/07 08:09:37;;;;;;;23.30;13.85;;;;;;;3.55;81.21;99771.56;2034533;87;27713;-67
2022/12/07 08:16:11;;;;;;;20.27;13.60;;;;;;;3.59;80.89;99776.72;1961990;90;31928;-66
2022/12/07 08:19:12;;;;;;;24.77;14.28;;;;;;;3.61;80.75;99778.02;1935775;91;33034;-66
2022/12/07 08:22:14;;;;;;;21.65;13.18;;;;;;;3.61;80.60;99778.87;1936096;91;30273;-66
2022/12/07 08:25:16;;;;;;;21.17;14.33;;;;;;;3.62;80.57;99778.43;1936058;91;27874;-66
2022/12/07 08:28:18;;;;;;;24.82;14.65;;;;;;;3.67;80.60;99778.29;1936080;91;29703;-67
2022/12/07 08:31:19;;;;;;;21.95;13.90;;;;;;;3.66;80.35;99780.05;1936061;91;31035;-67
2022/12/07 08:34:21;;;;;;;22.95;14.30;;;;;;;3.67;80.21;99774.31;1936022;91;32926;-67
2022/12/07 08:37:22;;;;;;;22.75;14.30;;;;;;;3.68;80.24;99775.58;1936082;91;30113;-66
2022/12/07 08:40:24;;;;;;;24.07;15.25;;;;;;;3.72;80.40;99774.58;1936125;91;27753;-67
2022/12/07 08:43:26;;;;;;;20.57;14.45;;;;;;;3.77;80.34;99770.46;1936178;91;28651;-66
2022/12/07 08:46:37;;;;;;;20.10;13.98;;;;;;;3.85;80.46;99772.44;1960209;88;31889;-66
2022/12/07 08:49:45;;;;;;;18.27;13.60;;;;;;;3.99;80.45;99763.19;2000485;88;32970;-66
2022/12/07 08:52:53;;;;;;;22.77;13.00;;;;;;;4.10;80.10;99763.71;2006490;88;30661;-66
2022/12/07 08:55:54;;;;;;;20.25;13.78;;;;;;;4.13;79.71;99762.77;2006747;88;27727;-66
2022/12/07 08:58:56;;;;;;;20.37;12.45;;;;;;;4.13;79.55;99763.62;1933846;90;28847;-66
2022/12/07 09:01:57;;;;;;;19.25;12.63;;;;;;;4.17;79.69;99765.27;1981906;89;31011;-66
2022/12/07 09:05:00;;;;;;;19.52;13.05;;;;;;;4.24;79.73;99754.85;2006651;88;32954;-66
2022/12/07 09:08:02;;;;;;;20.05;14.23;;;;;;;4.38;79.92;99754.88;2006297;88;29508;-66
2022/12/07 09:11:04;;;;;;;20.75;14.03;;;;;;;4.53;80.10;99750.84;2009753;87;27651;-66
2022/12/07 09:14:06;;;;;;;21.37;14.38;;;;;;;4.65;79.80;99750.41;2039442;87;28634;-66
2022/12/07 09:17:10;;;;;;;18.57;13.88;;;;;;;4.77;79.36;99746.48;2039237;87;31116;-66
2022/12/07 09:20:12;;;;;;;21.82;13.80;;;;;;;4.84;79.29;99736.51;2039261;87;33728;-66
2022/12/07 09:23:14;;;;;;;20.72;14.15;;;;;;;4.93;79.27;99732.22;1984822;88;30119;-66
2022/12/07 09:26:16;;;;;;;17.48;12.13;;;;;;;5.05;79.00;99732.70;2039216;87;27738;-66
2022/12/07 09:29:17;;;;;;;18.30;11.75;;;;;;;5.18;79.23;99726.02;2039316;87;29546;-66
2022/12/07 09:32:19;;;;;;;16.07;11.45;;;;;;;5.29;78.83;99729.16;2039133;87;32133;-65
2022/12/07 09:35:21;;;;;;;15.70;11.70;;;;;;;5.42;78.52;99730.87;2039227;87;32972;-66
2022/12/07 09:38:24;;;;;;;15.58;11.93;;;;;;;5.54;78.52;99714.08;2039314;87;29555;-65
2022/12/07 09:41:27;;;;;;;16.48;11.08;;;;;;;5.68;78.41;99715.73;2007033;87;27686;-65
2022/12/07 09:44:29;;;;;;;15.20;10.90;;;;;;;5.79;78.23;99704.69;2006639;88;29795;-65
2022/12/07 09:47:31;;;;;;;17.17;10.85;;;;;;;5.85;77.82;99701.77;2006745;88;32026;-65
2022/12/07 09:50:32;;;;;;;17.10;10.32;;;;;;;5.89;77.51;99695.41;1953790;90;33594;-67
2022/12/07 09:53:34;;;;;;;12.23;9.35;;;;;;;5.95;77.19;99699.61;1984046;88;29392;-64
2022/12/07 09:56:36;;;;;;;14.10;9.48;;;;;;;5.96;76.77;99686.72;2039516;87;27714;-65
2022/12/07 09:59:38;;;;;;;9.40;7.92;;;;;;;5.98;77.01;99699.94;2039347;87;28687;-66
2022/12/07 10:02:45;;;;;;;11.63;7.90;;;;;;;5.93;76.56;99693.04;2039255;87;31187;-65
2022/12/07 10:05:50;;;;;;;11.12;7.58;;;;;;;5.94;76.48;99684.59;2027861;87;33017;-65
2022/12/07 10:08:52;;;;;;;11.43;8.03;;;;;;;5.95;76.71;99678.34;2027985;87;30255;-65
2022/12/07 10:12:09;;;;;;;11.20;8.48;;;;;;;5.95;76.11;99681.00;2022074;87;27651;-65
2022/12/07 10:15:11;;;;;;;11.03;8.10;;;;;;;6.01;76.29;99669.28;2039150;87;28652;-66
2022/12/07 10:18:36;;;;;;;7.67;6.58;;;;;;;6.04;76.02;99659.85;2039214;87;31066;-64
2022/12/07 10:21:38;;;;;;;9.58;6.47;;;;;;;6.08;76.07;99649.50;2039387;87;33787;-65
2022/12/07 10:24:42;;;;;;;8.18;6.33;;;;;;;6.10;75.85;99643.66;2039447;87;29321;-64
2022/12/07 10:27:44;;;;;;;9.23;7.15;;;;;;;6.06;75.28;99646.88;2039235;87;27712;-65
2022/12/07 10:31:03;;;;;;;13.22;7.33;;;;;;;6.02;74.74;99646.63;1988246;87;29674;-65
2022/12/07 10:34:29;;;;;;;10.82;7.28;;;;;;;5.92;74.68;99647.44;1976744;87;31870;-65
2022/12/07 10:37:32;;;;;;;10.18;7.03;;;;;;;5.90;74.93;99648.41;2006805;88;33023;-65
2022/12/07 10:40:40;;;;;;;10.55;6.67;;;;;;;5.82;74.87;99652.71;1960439;89;29332;-64
2022/12/07 10:43:58;;;;;;;9.10;6.67;;;;;;;5.80;74.75;99651.91;1986628;88;27662;-65
2022/12/07 10:48:00;;;;;;;10.65;6.62;;;;;;;5.74;74.69;99654.35;2006936;88;28674;-66
2022/12/07 10:51:42;;;;;;;13.62;5.97;;;;;;;5.65;74.52;99657.84;2000197;88;31069;-65
2022/12/07 10:55:10;;;;;;;8.90;6.17;;;;;;;5.51;74.67;99661.06;2001357;87;33870;-65
2022/12/07 10:58:56;;;;;;;8.80;6.25;;;;;;;5.45;75.12;99656.38;2000780;89;29407;-65
2022/12/07 11:02:18;;;;;;;8.95;5.85;;;;;;;5.41;75.03;99653.91;1990702;88;27699;-65
2022/12/07 11:05:51;;;;;;;9.13;6.08;;;;;;;5.30;75.08;99652.99;2012747;87;28645;-65
2022/12/07 11:09:13;;;;;;;8.80;5.62;;;;;;;5.27;75.40;99647.34;2012700;88;32038;-65
2022/12/07 11:12:41;;;;;;;7.62;5.55;;;;;;;5.22;75.05;99645.77;2012806;87;33137;-65
2022/12/07 11:16:09;;;;;;;8.78;6.10;;;;;;;5.16;75.35;99643.77;2012924;88;30149;-65
2022/12/07 11:19:51;;;;;;;8.13;5.47;;;;;;;5.10;75.12;99647.97;2012983;88;27668;-64
2022/12/07 11:23:14;;;;;;;8.23;5.30;;;;;;;5.01;75.05;99639.04;2012896;88;29082;-65
2022/12/07 11:26:33;;;;;;;6.62;4.83;;;;;;;4.96;75.35;99640.98;2012735;87;31040;-65
2022/12/07 11:29:43;;;;;;;9.35;5.47;;;;;;;4.91;75.48;99635.86;2012542;87;33296;-64
2022/12/07 11:33:10;;;;;;;7.25;5.00;;;;;;;4.89;75.74;99629.73;2012563;87;29332;-64
2022/12/07 11:36:47;;;;;;;7.90;5.67;;;;;;;4.87;75.75;99627.59;2013164;87;27615;-67
2022/12/07 11:39:55;;;;;;;8.45;5.65;;;;;;;4.89;75.85;99627.08;2012706;87;28737;-65
2022/12/07 11:43:11;;;;;;;8.40;6.08;;;;;;;4.85;75.67;99621.48;2012651;87;31844;-65
2022/12/07 11:46:15;;;;;;;12.20;5.72;;;;;;;4.84;75.76;99621.95;2012471;88;32968;-65
2022/12/07 11:49:51;;;;;;;6.60;5.25;;;;;;;4.84;75.95;99613.98;2012710;87;29423;-65
2022/12/07 11:53:05;;;;;;;;;;;;;;;4.83;75.89;99621.98;2015158;87;28384;-65
2022/12/07 11:56:16;;;;;;;6.30;4.85;;;;;;;4.80;75.86;99627.44;2012856;88;28150;-65
2022/12/07 11:59:26;;;;;;;7.47;4.83;;;;;;;4.75;75.91;99616.97;2012671;88;31862;-66
2022/12/07 12:02:54;;;;;;;6.30;4.53;;;;;;;4.75;75.85;99617.44;1999787;88;33811;-65
2022/12/07 12:05:57;;;;;;;9.35;4.78;;;;;;;4.72;75.87;99618.40;2037071;87;29405;-66
2022/12/07 12:09:12;;;;;;;9.30;5.12;;;;;;;4.67;75.63;99619.05;2036929;87;27720;-66
2022/12/07 12:12:45;;;;;;;11.20;6.35;;;;;;;4.62;75.88;99617.89;2036945;87;28843;-66
2022/12/07 12:16:03;;;;;;;7.33;5.28;;;;;;;4.59;75.94;99610.48;1983332;89;31800;-65
2022/12/07 12:19:33;;;;;;;9.88;5.67;;;;;;;4.52;75.95;99618.69;2036820;87;33023;-66
2022/12/07 12:22:43;;;;;;;9.08;5.35;;;;;;;4.49;75.85;99624.09;2036635;87;28846;-65
2022/12/07 12:25:55;;;;;;;9.43;6.03;;;;;;;4.46;75.77;99616.23;1983201;89;28339;-66
2022/12/07 12:29:23;;;;;;;9.80;5.87;;;;;;;4.50;75.97;99613.89;2000683;89;28684;-66
2022/12/07 12:32:36;;;;;;;6.67;5.97;;;;;;;4.53;76.28;99618.21;1999487;87;31095;-65
2022/12/07 12:35:38;;;;;;;6.30;5.05;;;;;;;4.55;76.16;99621.20;2000355;88;33209;-66
2022/12/07 12:39:13;;;;;;;7.60;6.15;;;;;;;4.60;76.16;99613.55;2001123;89;29310;-65
2022/12/07 12:42:20;;;;;;;5.83;5.08;;;;;;;4.62;75.91;99611.70;1980984;89;27761;-65
2022/12/07 12:45:32;;;;;;;7.65;6.03;;;;;;;4.66;76.01;99601.40;2000526;89;29610;-66
2022/12/07 12:48:37;;;;;;;10.85;5.90;;;;;;;4.68;75.95;99603.06;2000595;88;30223;-66
2022/12/07 12:51:41;;;;;;;6.33;4.30;;;;;;;4.74;75.64;99593.16;2000411;89;32998;-66
2022/12/07 12:55:13;;;;;;;7.58;5.87;;;;;;;4.78;75.46;99602.27;1985444;88;28932;-65
2022/12/07 12:58:23;;;;;;;8.43;5.95;;;;;;;4.82;75.69;99601.68;1966984;90;27665;-64
2022/12/07 13:01:41;;;;;;;10.35;6.40;;;;;;;4.82;75.37;99586.64;1979772;89;28765;-64
2022/12/07 13:04:58;;;;;;;7.15;5.45;;;;;;;4.84;75.42;99599.84;1972534;89;31049;-64
2022/12/07 13:08:05;;;;;;;7.97;6.25;;;;;;;4.82;75.23;99601.23;1999485;88;33333;-64
2022/12/07 13:11:32;;;;;;;9.28;6.72;;;;;;;4.84;75.30;99597.19;2000021;88;30086;-64
2022/12/07 13:14:46;;;;;;;10.80;6.12;;;;;;;4.85;75.42;99601.57;2000225;88;27804;-65
2022/12/07 13:17:57;;;;;;;8.83;5.83;;;;;;;4.87;75.43;99599.73;1963059;90;28664;-65
2022/12/07 13:21:11;;;;;;;7.22;5.05;;;;;;;4.85;75.06;99603.78;1973414;90;31063;-64
2022/12/07 13:24:13;;;;;;;8.58;5.17;;;;;;;4.84;75.27;99608.69;1966880;90;33008;-65
2022/12/07 13:27:15;;;;;;;6.42;5.05;;;;;;;4.84;75.26;99612.66;1972948;90;29341;-66
2022/12/07 13:30:27;;;;;;;10.50;6.55;;;;;;;4.83;74.99;99614.03;1949084;90;27638;-67
2022/12/07 13:33:47;;;;;;;10.45;6.50;;;;;;;4.78;75.19;99609.38;1972437;89;43728;-66
2022/12/07 13:36:54;;;;;;;7.85;5.70;;;;;;;4.71;74.96;99605.61;1965137;90;31119;-66
2022/12/07 13:40:37;;;;;;;;;;;;;;;;;;;;;
2022/12/07 13:43:51;;;;;;;12.15;6.85;;;;;;;4.61;74.79;99622.80;1946080;90;27725;-66
2022/12/07 13:47:26;;;;;;;10.70;6.72;;;;;;;4.54;74.85;99618.17;1918626;92;28557;-66
2022/12/07 13:50:34;;;;;;;9.83;6.17;;;;;;;4.51;74.92;99624.02;1918859;92;29576;-66
2022/12/07 13:53:53;;;;;;;10.00;5.65;;;;;;;4.47;75.09;99633.89;1874231;94;31970;-66
2022/12/07 13:57:11;;;;;;;12.68;8.05;;;;;;;4.45;74.98;99619.81;1881183;93;28572;-67
2022/12/07 14:00:21;;;;;;;11.20;6.67;;;;;;;4.42;75.10;99621.23;1883427;93;31016;-65
2022/12/07 14:03:43;;;;;;;;;;;;;;;;;;;;;
2022/12/07 14:06:56;;;;;;;13.78;8.13;;;;;;;4.34;75.13;99610.91;1875257;94;27812;-65
2022/12/07 14:10:11;;;;;;;13.62;6.83;;;;;;;4.33;75.30;99610.97;1846367;96;27928;-66
2022/12/07 14:13:53;;;;;;;10.85;7.33;;;;;;;4.32;75.24;99611.89;1777556;98;29636;-67
2022/12/07 14:17:25;;;;;;;13.10;7.30;;;;;;;4.29;75.13;99605.36;1768754;100;29102;-65
2022/12/07 14:20:43;;;;;;;14.53;8.33;;;;;;;4.21;75.08;99601.21;1777684;100;28083;-65
2022/12/07 14:24:07;;;;;;;13.05;7.70;;;;;;;4.14;75.10;99594.38;1778951;100;29177;-65
2022/12/07 14:27:30;;;;;;;12.75;8.65;;;;;;;4.08;75.28;99602.08;1770152;100;32355;-68
2022/12/07 14:30:42;;;;;;;11.93;7.50;;;;;;;4.03;75.27;99603.16;1778412;100;28029;-66
2022/12/07 14:33:45;;;;;;;10.03;6.60;;;;;;;3.97;75.29;99603.36;1778512;100;27775;-66
2022/12/07 14:36:47;;;;;;;10.45;6.67;;;;;;;3.91;75.20;99606.61;1760314;100;27740;-66
2022/12/07 14:39:49;;;;;;;8.63;5.08;;;;;;;3.87;75.09;99609.42;1753549;101;28755;-65
2022/12/07 14:43:03;;;;;;;8.75;6.08;;;;;;;3.83;75.14;99607.78;1753568;101;31164;-65
2022/12/07 14:46:05;;;;;;;10.73;6.27;;;;;;;3.80;75.15;99607.00;1753551;101;33325;-65
2022/12/07 14:49:07;;;;;;;7.25;5.87;;;;;;;3.77;75.29;99614.16;1758354;97;29801;-65
2022/12/07 14:52:22;;;;;;;9.95;6.03;;;;;;;3.73;75.21;99620.02;1823339;97;27793;-65
2022/12/07 14:55:28;;;;;;;13.85;6.72;;;;;;;3.71;75.11;99624.97;1822055;97;28711;-65
2022/12/07 14:58:29;;;;;;;;;;;;;;;3.67;75.23;99625.50;1814571;97;31591;-66
2022/12/07 15:01:30;;;;;;;10.28;5.78;;;;;;;3.61;75.01;99621.27;1807007;97;32472;-65
2022/12/07 15:04:33;;;;;;;13.48;6.50;;;;;;;3.56;74.98;99630.29;1872851;94;30118;-65